Time;durP1;ratioP1;P1;durP2;ratioP2;P2;SDS_P1;SDS_P2;PMS_P1;PMS_P2;Temp;Humidity;BMP_temperature;BMP_pressure;BME280_temperature;BME280_humidity;BME280_pressure;Samples;Min_cycle;Max_cycle;Signal;HPM_P1;HPM_P2
2021/10/04 00:01:29;;;;;;;14.43;9.03;;;;;;;8.40;100.00;100062.14;1587626;88;21455;-71
2021/10/04 00:03:57;;;;;;;15.78;9.20;;;;;;;8.40;100.00;100068.70;1586894;89;21515;-71
2021/10/04 00:06:30;;;;;;;15.05;9.13;;;;;;;8.34;100.00;100058.97;1587878;88;20999;-71
2021/10/04 00:08:59;;;;;;;16.93;9.95;;;;;;;8.31;100.00;100052.74;1588124;89;20989;-71
2021/10/04 00:11:32;;;;;;;17.17;9.30;;;;;;;8.27;100.00;100051.80;1590983;88;21465;-70
2021/10/04 00:14:12;;;;;;;16.60;9.05;;;;;;;8.22;100.00;100050.84;1569483;89;21138;-70
2021/10/04 00:16:41;;;;;;;14.73;8.88;;;;;;;8.16;100.00;100046.36;1594707;88;21471;-71
2021/10/04 00:19:11;;;;;;;12.40;9.08;;;;;;;8.12;100.00;100052.42;1621701;86;20965;-71
2021/10/04 00:21:40;;;;;;;21.10;9.53;;;;;;;8.08;100.00;100053.66;1621501;86;21058;-71
2021/10/04 00:24:15;;;;;;;16.05;8.48;;;;;;;8.04;100.00;100048.77;1621905;86;21480;-71
2021/10/04 00:26:50;;;;;;;16.05;8.93;;;;;;;8.01;100.00;100040.80;1621045;86;21452;-71
2021/10/04 00:29:19;;;;;;;13.93;8.50;;;;;;;8.01;100.00;100046.05;1621844;86;20937;-71
2021/10/04 00:31:50;;;;;;;13.60;8.40;;;;;;;8.00;100.00;100043.40;1621421;86;20962;-71
2021/10/04 00:34:20;;;;;;;14.03;8.63;;;;;;;8.00;100.00;100039.46;1619507;86;21513;-70
2021/10/04 00:36:48;;;;;;;13.75;8.83;;;;;;;8.00;100.00;100040.34;1621262;86;21030;-71
2021/10/04 00:39:20;;;;;;;18.05;9.13;;;;;;;8.02;100.00;100039.06;1621806;86;21429;-71
2021/10/04 00:41:54;;;;;;;11.45;6.10;;;;;;;8.03;100.00;100041.72;1621348;86;20950;-71
2021/10/04 00:44:21;;;;;;;14.85;8.65;;;;;;;8.05;100.00;100051.86;1621277;86;21444;-70
2021/10/04 00:46:50;;;;;;;14.28;8.78;;;;;;;8.07;100.00;100052.77;1595598;86;21197;-70
2021/10/04 00:49:18;;;;;;;11.60;7.90;;;;;;;8.09;100.00;100045.80;1621516;86;20986;-70
2021/10/04 00:51:52;;;;;;;12.80;8.13;;;;;;;8.11;100.00;100039.26;1621679;86;21093;-70
2021/10/04 00:54:20;;;;;;;15.25;8.48;;;;;;;8.12;100.00;100039.72;1621666;86;21072;-70
2021/10/04 00:56:50;;;;;;;17.85;8.55;;;;;;;8.11;100.00;100044.52;1621321;86;21480;-71
2021/10/04 00:59:20;;;;;;;14.20;8.78;;;;;;;8.12;100.00;100044.97;1594966;86;20994;-70
2021/10/04 01:01:50;;;;;;;13.70;8.25;;;;;;;8.11;100.00;100044.52;1620633;86;21472;-71
2021/10/04 01:04:25;;;;;;;12.03;8.75;;;;;;;8.08;100.00;100040.09;1594256;86;21419;-70
2021/10/04 01:06:51;;;;;;;12.98;8.23;;;;;;;8.04;100.00;100038.66;1621204;86;21473;-71
2021/10/04 01:09:19;;;;;;;13.22;8.65;;;;;;;8.04;100.00;100038.66;1621568;86;20978;-70
2021/10/04 01:11:54;;;;;;;11.05;8.43;;;;;;;8.05;100.00;100041.34;1617310;86;21594;-69
2021/10/04 01:14:32;;;;;;;13.40;7.95;;;;;;;8.08;100.00;100037.46;1586715;87;20963;-69
2021/10/04 01:17:01;;;;;;;13.25;8.00;;;;;;;8.13;100.00;100040.17;1613942;87;21483;-69
2021/10/04 01:19:28;;;;;;;12.55;7.70;;;;;;;8.15;100.00;100041.08;1613879;87;20944;-72
2021/10/04 01:21:57;;;;;;;12.85;8.15;;;;;;;8.16;100.00;100029.28;1613755;87;21587;-70
2021/10/04 01:24:34;;;;;;;12.73;7.50;;;;;;;8.18;100.00;100043.77;1588731;89;21495;-71
2021/10/04 01:27:01;;;;;;;11.00;8.60;;;;;;;8.19;100.00;100036.33;1601957;87;21462;-71
2021/10/04 01:29:30;;;;;;;13.05;7.83;;;;;;;8.19;100.00;100037.64;1614560;87;21433;-71
2021/10/04 01:32:04;;;;;;;13.70;8.15;;;;;;;8.17;100.00;100034.99;1612807;87;21462;-71
2021/10/04 01:34:32;;;;;;;;;;;;;;;8.18;100.00;100037.19;1616800;87;21010;-70
2021/10/04 01:37:01;;;;;;;13.43;7.53;;;;;;;8.18;100.00;100032.82;1614279;87;20441;-72
2021/10/04 01:39:31;;;;;;;12.80;8.60;;;;;;;8.18;100.00;100039.39;1614452;86;21500;-71
2021/10/04 01:42:01;;;;;;;13.75;9.15;;;;;;;8.16;100.00;100042.42;1614030;86;21460;-71
2021/10/04 01:44:33;;;;;;;12.18;8.60;;;;;;;8.15;100.00;100044.59;1606911;87;20986;-70
2021/10/04 01:47:04;;;;;;;12.07;8.23;;;;;;;8.14;100.00;100040.63;1613966;87;21513;-71
2021/10/04 01:49:36;;;;;;;11.65;7.60;;;;;;;8.13;100.00;100034.48;1613739;87;21475;-71
2021/10/04 01:55:21;;;;;;;12.93;8.10;;;;;;;8.13;100.00;100037.11;1613881;87;21127;-71
2021/10/04 01:57:51;;;;;;;11.43;7.75;;;;;;;8.12;100.00;100042.34;1611404;87;20983;-72
2021/10/04 02:00:23;;;;;;;13.62;8.18;;;;;;;8.10;100.00;100030.48;1614073;87;21449;-72
2021/10/04 02:03:01;;;;;;;13.15;8.35;;;;;;;8.09;100.00;100035.29;1614378;87;21188;-72
2021/10/04 02:05:30;;;;;;;13.43;7.92;;;;;;;8.10;100.00;100041.00;1614367;87;21042;-71
2021/10/04 02:08:06;;;;;;;17.10;7.97;;;;;;;8.10;100.00;100037.48;1614033;87;21530;-71
2021/10/04 02:10:37;;;;;;;12.18;8.03;;;;;;;8.10;100.00;100041.00;1614200;87;21477;-71
2021/10/04 02:13:09;;;;;;;10.80;7.70;;;;;;;8.10;100.00;100046.69;1608003;87;20991;-72
2021/10/04 02:15:42;;;;;;;16.90;7.75;;;;;;;8.08;100.00;100057.17;1595759;89;21527;-71
2021/10/04 02:18:23;;;;;;;13.68;7.60;;;;;;;8.09;100.00;100055.42;1595888;89;21481;-72
2021/10/04 02:20:55;;;;;;;11.73;7.67;;;;;;;8.06;100.00;100056.25;1574617;89;21751;-72
2021/10/04 02:23:27;;;;;;;12.07;7.37;;;;;;;8.04;100.00;100059.28;1595799;89;20971;-71
2021/10/04 02:25:56;;;;;;;16.50;7.97;;;;;;;8.01;100.00;100068.39;1596343;89;20999;-70
2021/10/04 02:28:24;;;;;;;10.80;7.55;;;;;;;7.97;100.00;100075.76;1602310;88;21506;-70
2021/10/04 02:30:53;;;;;;;12.47;7.90;;;;;;;7.94;100.00;100069.56;1600291;88;20995;-70
2021/10/04 02:33:23;;;;;;;13.25;7.17;;;;;;;7.90;100.00;100073.44;1609840;88;21977;-70
2021/10/04 02:35:58;;;;;;;12.93;8.35;;;;;;;7.89;100.00;100073.41;1599752;88;20947;-70
2021/10/04 02:38:27;;;;;;;12.37;8.25;;;;;;;7.86;100.00;100070.30;1597541;89;21003;-70
2021/10/04 02:40:59;;;;;;;12.40;7.93;;;;;;;7.85;100.00;100072.47;1593189;88;21533;-69
2021/10/04 02:43:32;;;;;;;12.40;8.35;;;;;;;7.86;100.00;100083.86;1592019;89;20950;-68
2021/10/04 02:46:00;;;;;;;12.25;8.55;;;;;;;7.85;100.00;100074.21;1592211;90;21525;-68
2021/10/04 02:48:28;;;;;;;13.85;8.65;;;;;;;7.85;100.00;100066.33;1595370;89;21014;-68
2021/10/04 02:50:56;;;;;;;14.58;8.18;;;;;;;7.86;100.00;100059.80;1595949;88;21469;-68
2021/10/04 02:53:25;;;;;;;13.55;8.33;;;;;;;7.89;100.00;100062.91;1581508;90;20923;-68
2021/10/04 02:55:53;;;;;;;13.55;8.33;;;;;;;7.89;100.00;100070.36;1571098;90;20963;-66
2021/10/04 02:58:21;;;;;;;12.80;7.47;;;;;;;7.89;100.00;100063.79;1595779;89;21192;-66
2021/10/04 03:00:48;;;;;;;14.90;7.37;;;;;;;7.89;100.00;100070.36;1603858;88;21463;-65
2021/10/04 03:03:16;;;;;;;14.68;8.53;;;;;;;7.95;100.00;100070.91;1603165;88;21450;-65
2021/10/04 03:05:45;;;;;;;14.70;9.00;;;;;;;7.97;100.00;100068.30;1595560;89;21001;-65
2021/10/04 03:08:13;;;;;;;13.48;8.53;;;;;;;7.98;100.00;100068.33;1595483;89;20987;-65
2021/10/04 03:10:42;;;;;;;12.13;8.50;;;;;;;7.98;100.00;100076.22;1595660;89;21122;-66
2021/10/04 03:13:11;;;;;;;11.25;8.40;;;;;;;7.97;100.00;100076.19;1604397;88;20972;-66
2021/10/04 03:15:39;;;;;;;12.23;8.70;;;;;;;7.96;100.00;100077.92;1595754;89;21040;-67
2021/10/04 03:18:10;;;;;;;11.88;7.92;;;;;;;7.97;100.00;100073.56;1595596;89;20990;-67
2021/10/04 03:20:38;;;;;;;13.08;8.53;;;;;;;7.97;100.00;100077.50;1595783;89;20959;-67
2021/10/04 03:23:06;;;;;;;11.12;8.15;;;;;;;7.95;100.00;100074.84;1595656;89;21142;-68
2021/10/04 03:25:33;;;;;;;11.63;8.10;;;;;;;7.95;100.00;100077.90;1625056;87;20922;-66
2021/10/04 03:28:02;;;;;;;11.97;8.20;;;;;;;7.95;100.00;100079.21;1626549;88;20955;-67
2021/10/04 03:30:33;;;;;;;12.68;8.30;;;;;;;7.94;100.00;100072.19;1626693;88;21458;-66
2021/10/04 03:33:02;;;;;;;20.82;8.98;;;;;;;7.92;100.00;100064.28;1607953;87;20955;-68
2021/10/04 03:35:31;;;;;;;34.10;10.32;;;;;;;7.91;100.00;100062.50;1595802;89;21114;-67
2021/10/04 03:38:03;;;;;;;16.67;8.78;;;;;;;7.92;100.00;100067.33;1600395;88;20915;-65
2021/10/04 03:40:33;;;;;;;18.32;8.33;;;;;;;7.93;100.00;100076.98;1610930;88;28574;-65
2021/10/04 03:43:03;;;;;;;10.25;8.05;;;;;;;7.93;100.00;100080.92;1609481;88;21449;-68
2021/10/04 03:45:36;;;;;;;13.78;9.25;;;;;;;7.92;100.00;100083.98;1597535;88;21035;-73
2021/10/04 03:48:06;;;;;;;16.10;9.05;;;;;;;7.93;100.00;100091.44;1594420;88;21336;-72
2021/10/04 03:50:34;;;;;;;16.27;8.63;;;;;;;7.93;100.00;100090.12;1596991;88;20907;-72
2021/10/04 03:53:02;;;;;;;11.48;8.25;;;;;;;7.91;100.00;100086.15;1595385;89;21011;-76
2021/10/04 03:55:29;;;;;;;10.53;7.67;;;;;;;7.90;100.00;100090.52;1595323;88;21010;-72
2021/10/04 03:57:58;;;;;;;10.70;7.78;;;;;;;7.92;100.00;100096.23;1594389;89;20970;-69
2021/10/04 04:00:26;;;;;;;13.85;8.50;;;;;;;7.95;100.00;100098.48;1594152;89;21111;-69
2021/10/04 04:02:54;;;;;;;14.43;8.70;;;;;;;7.97;100.00;100095.46;1593846;89;21007;-68
2021/10/04 04:05:23;;;;;;;14.93;8.83;;;;;;;7.98;100.00;100092.41;1594339;89;21007;-68
2021/10/04 04:07:50;;;;;;;12.40;7.65;;;;;;;7.98;100.00;100097.66;1594749;89;20962;-68
2021/10/04 04:10:18;;;;;;;18.25;8.53;;;;;;;7.98;100.00;100096.34;1594738;89;20915;-68
2021/10/04 04:12:46;;;;;;;24.32;8.70;;;;;;;7.98;100.00;100094.61;1602226;88;21133;-69
2021/10/04 04:15:13;;;;;;;12.68;8.25;;;;;;;7.99;100.00;100097.69;1612395;87;20976;-68
2021/10/04 04:17:41;;;;;;;12.35;8.13;;;;;;;7.99;100.00;100096.80;1613009;87;21000;-68
2021/10/04 04:20:11;;;;;;;17.20;8.33;;;;;;;7.99;100.00;100092.86;1612994;87;21045;-68
2021/10/04 04:22:40;;;;;;;13.43;8.08;;;;;;;8.00;100.00;100095.95;1613032;87;20937;-68
2021/10/04 04:25:09;;;;;;;12.60;8.25;;;;;;;8.02;100.00;100103.00;1612996;87;21491;-69
2021/10/04 04:27:37;;;;;;;16.23;8.13;;;;;;;8.05;100.00;100111.41;1613176;87;21488;-68
2021/10/04 04:30:06;;;;;;;13.80;8.33;;;;;;;8.06;100.00;100117.12;1612966;87;20961;-68
2021/10/04 04:32:35;;;;;;;62.03;11.97;;;;;;;8.06;100.00;100118.01;1613255;87;21441;-68
2021/10/04 04:35:07;;;;;;;32.98;9.25;;;;;;;8.08;100.00;100119.34;1613023;87;21532;-68
2021/10/04 04:37:39;;;;;;;18.85;8.70;;;;;;;8.10;100.00;100116.32;1613233;87;21131;-66
2021/10/04 04:40:10;;;;;;;95.95;14.80;;;;;;;8.13;100.00;100115.95;1612975;87;20917;-66
2021/10/04 04:42:42;;;;;;;43.50;10.30;;;;;;;8.16;100.00;100116.44;1612976;87;20929;-68
2021/10/04 04:45:12;;;;;;;34.78;8.93;;;;;;;8.20;100.00;100124.84;1613027;87;21056;-67
2021/10/04 04:47:41;;;;;;;25.75;9.10;;;;;;;8.27;100.00;100121.89;1613279;87;21418;-67
2021/10/04 04:50:09;;;;;;;15.45;7.50;;;;;;;8.34;100.00;100125.13;1613022;87;21129;-69
2021/10/04 04:52:36;;;;;;;14.63;7.85;;;;;;;8.41;100.00;100116.48;1613155;87;21440;-69
2021/10/04 04:55:05;;;;;;;19.37;8.68;;;;;;;8.45;100.00;100119.63;1613014;87;20982;-69
2021/10/04 04:57:33;;;;;;;25.10;8.50;;;;;;;8.51;100.00;100123.68;1613287;87;20989;-69
2021/10/04 05:00:05;;;;;;;17.00;7.90;;;;;;;8.55;100.00;100124.22;1613206;87;21492;-69
2021/10/04 05:02:36;;;;;;;15.23;8.23;;;;;;;8.60;100.00;100125.62;1612563;87;21156;-68
2021/10/04 05:05:04;;;;;;;30.25;9.15;;;;;;;8.63;100.00;100123.04;1613088;87;20906;-68
2021/10/04 05:07:34;;;;;;;42.00;9.18;;;;;;;8.66;100.00;100121.78;1612980;87;21433;-68
2021/10/04 05:10:05;;;;;;;18.52;7.95;;;;;;;8.70;100.00;100107.81;1613135;87;20926;-68
2021/10/04 05:12:34;;;;;;;29.92;8.60;;;;;;;8.72;100.00;100101.72;1613173;87;21507;-68
2021/10/04 05:15:03;;;;;;;12.37;7.25;;;;;;;8.76;100.00;100105.28;1614328;86;21158;-68
2021/10/04 05:17:31;;;;;;;15.08;7.72;;;;;;;8.71;100.00;100110.90;1614053;86;20937;-68
2021/10/04 05:19:59;;;;;;;14.00;7.60;;;;;;;8.69;100.00;100107.36;1614327;86;20925;-68
2021/10/04 05:22:26;;;;;;;14.83;8.33;;;;;;;8.66;100.00;100101.62;1614250;86;21520;-68
2021/10/04 05:24:55;;;;;;;12.80;7.72;;;;;;;8.64;100.00;100102.45;1614486;86;20949;-69
2021/10/04 05:27:22;;;;;;;11.08;7.45;;;;;;;8.65;100.00;100115.63;1614252;87;21145;-69
2021/10/04 05:29:50;;;;;;;28.45;8.53;;;;;;;8.66;100.00;100109.51;1614438;86;21576;-71
2021/10/04 05:32:18;;;;;;;13.95;7.80;;;;;;;8.67;100.00;100109.97;1614258;86;21510;-67
2021/10/04 05:34:45;;;;;;;13.03;7.40;;;;;;;8.71;100.00;100131.52;1614412;86;21445;-68
2021/10/04 05:37:13;;;;;;;15.00;7.85;;;;;;;8.77;100.00;100129.41;1614249;86;20985;-68
2021/10/04 05:39:41;;;;;;;16.45;8.00;;;;;;;8.81;100.00;100128.17;1614507;87;21137;-68
2021/10/04 05:42:11;;;;;;;15.08;8.48;;;;;;;8.85;100.00;100130.42;1614248;86;20925;-68
2021/10/04 05:44:38;;;;;;;15.40;8.08;;;;;;;8.88;100.00;100133.11;1614338;86;20985;-68
2021/10/04 05:47:07;;;;;;;17.15;7.65;;;;;;;8.92;100.00;100134.92;1614180;87;20945;-68
2021/10/04 05:49:35;;;;;;;13.62;8.00;;;;;;;8.95;100.00;100131.45;1614459;86;21056;-67
2021/10/04 05:52:03;;;;;;;12.75;7.92;;;;;;;8.98;100.00;100138.08;1614264;86;21137;-68
2021/10/04 05:54:32;;;;;;;13.88;8.23;;;;;;;9.01;100.00;100140.37;1614377;86;21477;-69
2021/10/04 05:56:59;;;;;;;21.77;8.13;;;;;;;9.05;100.00;100146.13;1614247;86;21008;-68
2021/10/04 05:59:28;;;;;;;12.33;7.80;;;;;;;9.07;100.00;100147.47;1614444;86;21045;-68
2021/10/04 06:01:55;;;;;;;12.55;8.03;;;;;;;9.10;100.00;100148.84;1614227;86;20949;-68
2021/10/04 06:04:26;;;;;;;14.40;8.03;;;;;;;9.15;100.00;100147.16;1614195;86;21128;-68
2021/10/04 06:06:54;;;;;;;15.68;8.83;;;;;;;9.20;100.00;100149.86;1614159;89;20980;-68
2021/10/04 06:09:21;;;;;;;10.65;8.10;;;;;;;9.18;100.00;100141.06;1614224;86;21096;-68
2021/10/04 06:11:49;;;;;;;14.85;8.10;;;;;;;9.15;100.00;100141.90;1614177;86;20969;-69
2021/10/04 06:14:16;;;;;;;12.93;7.85;;;;;;;9.14;100.00;100144.96;1613311;87;20933;-69
2021/10/04 06:16:44;;;;;;;15.00;8.58;;;;;;;9.13;100.00;100147.57;1613034;87;21136;-68
2021/10/04 06:19:11;;;;;;;11.83;8.73;;;;;;;9.13;100.00;100140.98;1613027;87;20999;-68
2021/10/04 06:21:40;;;;;;;15.28;8.98;;;;;;;9.14;100.00;100138.81;1613079;87;20941;-68
2021/10/04 06:24:07;;;;;;;14.93;8.80;;;;;;;9.17;100.00;100136.23;1613046;87;21501;-69
2021/10/04 06:26:36;;;;;;;22.22;9.60;;;;;;;9.19;100.00;100138.87;1613066;88;20937;-69
2021/10/04 06:29:04;;;;;;;27.82;9.43;;;;;;;9.20;100.00;100141.53;1613350;87;21477;-69
2021/10/04 06:31:33;;;;;;;18.12;9.50;;;;;;;9.24;100.00;100137.20;1613004;87;20982;-69
2021/10/04 06:34:01;;;;;;;14.95;8.50;;;;;;;9.27;100.00;100139.45;1613364;88;21004;-68
2021/10/04 06:36:29;;;;;;;16.40;8.68;;;;;;;9.26;100.00;100140.31;1613044;87;20937;-68
2021/10/04 06:38:56;;;;;;;15.72;9.45;;;;;;;9.27;100.00;100139.45;1613342;87;21499;-68
2021/10/04 06:41:24;;;;;;;15.23;8.75;;;;;;;9.26;100.00;100142.94;1613044;87;21075;-68
2021/10/04 06:43:51;;;;;;;18.30;9.38;;;;;;;9.27;100.00;100139.88;1613195;87;21434;-69
2021/10/04 06:46:19;;;;;;;16.12;8.10;;;;;;;9.29;100.00;100146.05;1613032;87;20953;-69
2021/10/04 06:48:46;;;;;;;11.55;8.10;;;;;;;9.34;100.00;100148.32;1613250;87;20937;-69
2021/10/04 06:51:14;;;;;;;17.02;8.78;;;;;;;9.40;100.00;100152.36;1613088;87;21415;-69
2021/10/04 06:53:41;;;;;;;15.58;8.88;;;;;;;9.45;100.00;100153.31;1613268;87;21109;-69
2021/10/04 06:56:09;;;;;;;23.15;8.93;;;;;;;9.50;100.00;100145.50;1612990;87;20981;-69
2021/10/04 06:58:37;;;;;;;24.07;9.00;;;;;;;9.56;100.00;100157.44;1613296;87;20913;-69
2021/10/04 07:01:05;;;;;;;17.73;9.03;;;;;;;9.62;100.00;100159.73;1613011;87;20996;-68
2021/10/04 07:03:33;;;;;;;26.33;9.53;;;;;;;9.67;100.00;100160.67;1613291;87;20929;-69
2021/10/04 07:06:00;;;;;;;12.95;8.43;;;;;;;9.73;100.00;100158.13;1613047;88;21175;-69
2021/10/04 07:08:28;;;;;;;13.43;9.13;;;;;;;9.75;100.00;100158.14;1613262;87;21073;-69
2021/10/04 07:10:56;;;;;;;25.32;8.95;;;;;;;9.76;100.00;100158.59;1613102;87;21016;-69
2021/10/04 07:13:24;;;;;;;15.63;8.65;;;;;;;9.78;100.00;100162.13;1613204;87;21052;-68
2021/10/04 07:15:52;;;;;;;19.45;8.98;;;;;;;9.82;100.00;100158.67;1614167;86;20914;-69
2021/10/04 07:18:20;;;;;;;12.78;8.80;;;;;;;9.86;100.00;100164.44;1614131;86;21142;-68
2021/10/04 07:20:49;;;;;;;15.48;8.38;;;;;;;9.95;100.00;100167.22;1614182;86;20993;-69
2021/10/04 07:23:35;;;;;;;14.15;8.78;;;;;;;10.05;100.00;100166.47;1614402;86;21505;-70
2021/10/04 07:26:02;;;;;;;15.00;8.58;;;;;;;10.13;100.00;100173.14;1614136;86;20996;-68
2021/10/04 07:28:32;;;;;;;14.90;8.40;;;;;;;10.22;100.00;100177.67;1614399;86;20988;-68
2021/10/04 07:31:00;;;;;;;17.95;9.23;;;;;;;10.28;100.00;100175.11;1614121;86;21130;-68
2021/10/04 07:33:28;;;;;;;14.73;8.15;;;;;;;10.37;100.00;100174.77;1614321;86;20937;-68
2021/10/04 07:35:57;;;;;;;18.77;8.35;;;;;;;10.45;100.00;100166.09;1613706;86;21489;-69
2021/10/04 07:38:25;;;;;;;18.70;8.90;;;;;;;10.55;100.00;100161.36;1614354;86;20981;-69
2021/10/04 07:40:53;;;;;;;13.18;8.90;;;;;;;10.63;100.00;100167.59;1614160;86;21416;-68
2021/10/04 07:43:20;;;;;;;16.25;8.65;;;;;;;10.73;100.00;100166.81;1614309;86;21115;-69
2021/10/04 07:45:48;;;;;;;17.07;9.08;;;;;;;10.80;100.00;100170.39;1614149;86;21488;-69
2021/10/04 07:48:15;;;;;;;15.68;9.15;;;;;;;10.88;100.00;100166.98;1614359;86;20990;-68
2021/10/04 07:50:45;;;;;;;14.40;9.08;;;;;;;10.94;100.00;100162.19;1614152;89;20970;-68
2021/10/04 07:53:13;;;;;;;19.23;9.40;;;;;;;10.99;100.00;100161.36;1614410;86;20977;-69
2021/10/04 07:55:40;;;;;;;17.37;9.18;;;;;;;11.09;100.00;100162.75;1614160;86;21501;-69
2021/10/04 07:58:11;;;;;;;19.27;9.45;;;;;;;11.18;100.00;100157.53;1614156;87;20973;-69
2021/10/04 08:00:38;;;;;;;15.13;8.83;;;;;;;11.24;100.00;100159.78;1614191;86;21484;-69
2021/10/04 08:03:07;;;;;;;15.80;9.80;;;;;;;11.32;100.00;100158.08;1614179;86;21603;-70
2021/10/04 08:05:35;;;;;;;15.35;8.53;;;;;;;11.43;100.00;100158.63;1614060;86;21023;-69
2021/10/04 08:08:02;;;;;;;16.07;9.38;;;;;;;11.47;100.00;100159.97;1614332;86;21189;-69
2021/10/04 08:10:33;;;;;;;80.70;12.10;;;;;;;11.51;100.00;100158.23;1613732;86;21424;-68
2021/10/04 08:13:01;;;;;;;19.32;9.40;;;;;;;11.56;100.00;100160.46;1613717;86;20905;-69
2021/10/04 08:15:29;;;;;;;14.33;9.30;;;;;;;11.61;100.00;100160.94;1613176;87;20906;-67
2021/10/04 08:17:56;;;;;;;21.48;9.38;;;;;;;11.71;100.00;100158.34;1612606;87;20929;-67
2021/10/04 08:20:28;;;;;;;14.63;8.53;;;;;;;11.79;100.00;100165.47;1612837;87;21172;-69
2021/10/04 08:22:57;;;;;;;11.63;8.43;;;;;;;11.87;100.00;100166.86;1587378;87;20941;-69
2021/10/04 08:25:25;;;;;;;17.60;8.88;;;;;;;11.92;100.00;100159.39;1612641;87;20929;-70
2021/10/04 08:27:53;;;;;;;14.03;8.48;;;;;;;12.00;100.00;100161.19;1612341;87;21570;-71
2021/10/04 08:30:24;;;;;;;16.48;8.70;;;;;;;12.06;100.00;100159.89;1613234;87;20953;-71
2021/10/04 08:32:51;;;;;;;12.78;8.08;;;;;;;12.12;100.00;100163.88;1612908;87;21115;-70
2021/10/04 08:35:19;;;;;;;15.10;8.90;;;;;;;12.17;100.00;100163.02;1612525;87;20921;-70
2021/10/04 08:37:48;;;;;;;13.00;7.83;;;;;;;12.22;100.00;100165.23;1612010;87;20960;-71
2021/10/04 08:44:43;;;;;;;18.82;8.68;;;;;;;12.35;100.00;100168.84;1613119;87;21536;-69
2021/10/04 08:47:13;;;;;;;17.57;9.30;;;;;;;12.48;100.00;100156.52;1591418;87;21141;-70
2021/10/04 08:49:40;;;;;;;18.25;9.70;;;;;;;12.55;100.00;100153.88;1588642;90;21061;-69
2021/10/04 08:52:15;;;;;;;17.57;9.90;;;;;;;12.63;100.00;100158.30;1582279;90;21537;-71
2021/10/04 08:54:45;;;;;;;16.77;9.48;;;;;;;12.73;100.00;100157.44;1580349;90;21146;-69
2021/10/04 08:57:12;;;;;;;;;;;;;;;12.79;100.00;100153.50;1585271;90;20962;-69
2021/10/04 08:59:39;;;;;;;39.67;10.10;;;;;;;12.87;100.00;100151.74;1570981;90;21113;-69
2021/10/04 09:02:27;;;;;;;22.82;8.38;;;;;;;12.93;100.00;100147.77;1570692;90;21470;-69
2021/10/04 09:05:25;;;;;;;16.10;8.38;;;;;;;13.00;100.00;100150.86;1570986;90;20971;-70
2021/10/04 09:16:15;;;;;;;20.02;8.65;;;;;;;13.25;100.00;100142.97;1599181;86;21497;-70
2021/10/04 09:18:44;;;;;;;15.32;8.30;;;;;;;13.30;100.00;100146.48;1581723;88;21536;-69
2021/10/04 09:21:12;;;;;;;16.07;8.80;;;;;;;13.35;100.00;100144.72;1606333;88;21018;-69
2021/10/04 09:23:52;;;;;;;15.38;7.92;;;;;;;13.40;100.00;100145.15;1606189;88;21054;-70
2021/10/04 09:26:29;;;;;;;18.17;7.92;;;;;;;13.48;100.00;100146.02;1605747;88;20945;-70
2021/10/04 09:29:06;;;;;;;17.70;7.75;;;;;;;13.62;100.00;100140.67;1601411;88;21931;-69
2021/10/04 09:31:42;;;;;;;11.53;7.60;;;;;;;13.77;100.00;100141.11;1606504;88;20930;-69
2021/10/04 09:34:16;;;;;;;15.38;7.70;;;;;;;13.89;100.00;100146.81;1606086;88;20949;-69
2021/10/04 09:36:54;;;;;;;55.88;9.60;;;;;;;13.99;100.00;100158.70;1606482;88;20941;-69
2021/10/04 09:39:32;;;;;;;18.92;8.15;;;;;;;14.11;99.36;100148.48;1605367;88;20994;-69
2021/10/04 09:42:17;;;;;;;13.10;6.50;;;;;;;14.24;98.04;100159.95;1605453;88;21107;-70
2021/10/04 09:45:00;;;;;;;12.93;6.85;;;;;;;14.35;96.56;100155.02;1605287;88;21786;-69
2021/10/04 09:47:42;;;;;;;11.10;6.62;;;;;;;14.49;93.81;100151.88;1605941;88;20989;-69
2021/10/04 09:50:14;;;;;;;11.33;6.37;;;;;;;14.64;92.00;100148.23;1606072;88;21061;-69
2021/10/04 09:52:51;;;;;;;13.98;7.17;;;;;;;14.80;89.39;100146.39;1606931;88;20989;-69
2021/10/04 09:55:39;;;;;;;12.50;5.85;;;;;;;14.95;87.83;100142.28;1602191;88;21103;-67
2021/10/04 09:58:21;;;;;;;12.68;6.58;;;;;;;15.14;85.31;100134.19;1606739;88;20922;-67
2021/10/04 10:00:53;;;;;;;20.85;6.83;;;;;;;15.33;81.97;100130.45;1606762;88;21024;-66
2021/10/04 10:03:28;;;;;;;12.98;6.53;;;;;;;15.48;78.77;100127.64;1606884;88;20946;-67
2021/10/04 10:05:57;;;;;;;50.73;8.98;;;;;;;15.54;72.84;100132.89;1606459;88;20930;-70
2021/10/04 10:08:29;;;;;;;14.23;5.67;;;;;;;15.53;70.56;100127.59;1606945;88;20938;-70
2021/10/04 10:11:00;;;;;;;13.25;5.95;;;;;;;15.52;69.08;100129.81;1606511;88;21460;-70
2021/10/04 10:13:30;;;;;;;17.73;6.33;;;;;;;15.57;68.26;100116.91;1606636;88;20993;-69
2021/10/04 10:16:15;;;;;;;17.05;6.80;;;;;;;15.64;65.84;100119.11;1600853;88;21510;-70
2021/10/04 10:18:56;;;;;;;10.43;6.58;;;;;;;15.64;65.69;100112.02;1601392;88;21042;-71
2021/10/04 10:21:27;;;;;;;12.07;5.78;;;;;;;15.74;66.53;100108.34;1601636;88;21118;-69
2021/10/04 10:24:10;;;;;;;13.38;6.62;;;;;;;15.89;66.54;100111.27;1601336;88;21028;-70
2021/10/04 10:26:48;;;;;;;10.38;6.35;;;;;;;16.05;66.79;100115.94;1601694;88;21465;-69
2021/10/04 10:29:32;;;;;;;16.35;6.12;;;;;;;16.20;65.95;100109.12;1601376;88;20942;-69
2021/10/04 10:32:10;;;;;;;9.50;5.85;;;;;;;16.30;63.94;100117.85;1601847;88;21002;-70
2021/10/04 10:34:44;;;;;;;14.83;5.95;;;;;;;16.27;61.55;100120.56;1601388;88;21969;-70
2021/10/04 10:37:28;;;;;;;13.53;5.97;;;;;;;16.13;58.59;100127.41;1601381;88;21460;-74
2021/10/04 10:40:14;;;;;;;20.17;7.33;;;;;;;15.96;57.73;100126.25;1601429;88;21015;-69
2021/10/04 10:43:02;;;;;;;17.65;6.30;;;;;;;15.81;57.57;100120.24;1601349;88;20941;-67
2021/10/04 10:45:44;;;;;;;9.00;5.72;;;;;;;15.76;58.35;100108.33;1601415;88;21479;-69
2021/10/04 10:48:17;;;;;;;10.45;5.65;;;;;;;15.77;58.23;100115.41;1600420;88;21102;-69
2021/10/04 10:50:48;;;;;;;12.78;5.05;;;;;;;15.73;57.19;100105.25;1601270;88;21433;-68
2021/10/04 10:53:21;;;;;;;8.63;4.70;;;;;;;15.69;56.61;100104.86;1601471;88;21497;-69
2021/10/04 10:56:03;;;;;;;13.00;5.00;;;;;;;15.67;55.94;100096.47;1575136;89;21002;-69
2021/10/04 10:58:37;;;;;;;18.48;5.03;;;;;;;15.66;55.43;100101.36;1601261;88;21534;-69
2021/10/04 11:01:19;;;;;;;9.68;4.60;;;;;;;15.65;55.43;100104.47;1600492;88;21185;-71
2021/10/04 11:04:02;;;;;;;9.25;4.30;;;;;;;15.65;55.42;100103.13;1600343;88;20978;-70
2021/10/04 11:07:04;;;;;;;16.45;5.03;;;;;;;15.69;55.32;100098.21;1554048;88;21529;-70
2021/10/04 11:10:10;;;;;;;16.77;5.73;;;;;;;15.71;54.43;100098.19;1587265;88;20989;-70
2021/10/04 11:13:11;;;;;;;10.72;5.08;;;;;;;15.73;54.35;100083.98;1601396;88;20922;-69
2021/10/04 11:15:59;;;;;;;7.62;4.40;;;;;;;15.85;54.94;100086.93;1519197;94;22035;-69
2021/10/04 11:18:22;;;;;;;8.45;4.67;;;;;;;15.99;54.51;100083.64;1567855;91;21536;-70
2021/10/04 11:21:02;;;;;;;52.33;7.60;;;;;;;16.12;54.25;100086.16;1548315;91;20979;-70
2021/10/04 11:23:31;;;;;;;5.22;4.10;;;;;;;16.19;53.55;100079.86;1548277;91;21492;-70
2021/10/04 11:25:59;;;;;;;9.88;4.30;;;;;;;16.23;53.44;100077.58;1548287;91;21047;-65
2021/10/04 11:28:40;;;;;;;11.45;5.03;;;;;;;16.26;53.19;100071.76;1548300;91;21092;-69
2021/10/04 11:31:13;;;;;;;14.63;5.62;;;;;;;16.32;52.76;100073.45;1548278;91;20968;-69
2021/10/04 11:33:59;;;;;;;12.82;5.53;;;;;;;16.29;51.80;100074.83;1548517;91;20888;-68
2021/10/04 11:36:32;;;;;;;12.85;6.00;;;;;;;16.14;50.62;100076.38;1548291;91;20984;-69
2021/10/04 11:39:12;;;;;;;6.12;4.83;;;;;;;15.99;50.09;100068.13;1548561;91;21557;-68
2021/10/04 11:41:45;;;;;;;9.93;5.30;;;;;;;15.90;50.38;100073.12;1548338;91;21142;-69
2021/10/04 11:44:19;;;;;;;8.23;4.78;;;;;;;15.84;50.61;100062.56;1548586;91;21521;-68
2021/10/04 11:46:53;;;;;;;10.78;5.12;;;;;;;15.81;50.63;100064.37;1548329;91;20939;-69
2021/10/04 11:49:34;;;;;;;7.22;5.00;;;;;;;15.76;50.68;100064.44;1548495;91;21040;-66
2021/10/04 11:52:05;;;;;;;8.93;4.37;;;;;;;15.74;50.89;100064.91;1548552;91;21055;-67